sensor_id;sensor_type;location;lat;lon;timestamp;temperature;humidity
24802;DHT22;12898;50.520;12.152;2022-08-21T00:02:18;15.90;99.90
24802;DHT22;12898;50.520;12.152;2022-08-21T00:04:49;16.00;99.90
24802;DHT22;12898;50.520;12.152;2022-08-21T00:07:16;15.90;99.90
24802;DHT22;12898;50.520;12.152;2022-08-21T00:09:43;15.80;99.90
24802;DHT22;12898;50.520;12.152;2022-08-21T00:12:09;15.80;99.90
24802;DHT22;12898;50.520;12.152;2022-08-21T00:14:35;15.80;99.90
24802;DHT22;12898;50.520;12.152;2022-08-21T00:17:03;15.80;99.90
24802;DHT22;12898;50.520;12.152;2022-08-21T00:19:29;15.80;99.90
24802;DHT22;12898;50.520;12.152;2022-08-21T00:21:55;15.70;99.90
24802;DHT22;12898;50.520;12.152;2022-08-21T00:24:22;15.70;99.90
24802;DHT22;12898;50.520;12.152;2022-08-21T00:26:49;15.80;99.90
24802;DHT22;12898;50.520;12.152;2022-08-21T00:29:15;15.80;99.90
24802;DHT22;12898;50.520;12.152;2022-08-21T00:31:42;15.80;99.90
24802;DHT22;12898;50.520;12.152;2022-08-21T00:34:09;15.80;99.90
24802;DHT22;12898;50.520;12.152;2022-08-21T00:36:36;15.80;99.90
24802;DHT22;12898;50.520;12.152;2022-08-21T00:39:03;15.80;99.90
24802;DHT22;12898;50.520;12.152;2022-08-21T00:41:33;15.80;99.90
24802;DHT22;12898;50.520;12.152;2022-08-21T00:44:00;15.80;99.90
24802;DHT22;12898;50.520;12.152;2022-08-21T00:46:26;15.80;99.90
24802;DHT22;12898;50.520;12.152;2022-08-21T00:48:52;15.80;99.90
24802;DHT22;12898;50.520;12.152;2022-08-21T00:51:20;15.70;99.90
24802;DHT22;12898;50.520;12.152;2022-08-21T00:53:55;15.70;99.90
24802;DHT22;12898;50.520;12.152;2022-08-21T00:56:24;15.70;99.90
24802;DHT22;12898;50.520;12.152;2022-08-21T00:58:51;15.70;99.90
24802;DHT22;12898;50.520;12.152;2022-08-21T01:01:18;15.60;99.90
24802;DHT22;12898;50.520;12.152;2022-08-21T01:03:43;15.60;99.90
24802;DHT22;12898;50.520;12.152;2022-08-21T01:06:10;15.50;99.90
24802;DHT22;12898;50.520;12.152;2022-08-21T01:08:36;15.50;99.90
24802;DHT22;12898;50.520;12.152;2022-08-21T01:11:03;15.50;99.90
24802;DHT22;12898;50.520;12.152;2022-08-21T01:13:32;15.50;99.90
24802;DHT22;12898;50.520;12.152;2022-08-21T01:16:04;15.50;99.90
24802;DHT22;12898;50.520;12.152;2022-08-21T01:18:30;15.50;99.90
24802;DHT22;12898;50.520;12.152;2022-08-21T01:21:11;15.60;99.90
24802;DHT22;12898;50.520;12.152;2022-08-21T01:23:43;15.60;99.90
24802;DHT22;12898;50.520;12.152;2022-08-21T01:26:11;15.60;99.90
24802;DHT22;12898;50.520;12.152;2022-08-21T01:28:50;15.60;99.90
24802;DHT22;12898;50.520;12.152;2022-08-21T01:31:23;15.60;99.90
24802;DHT22;12898;50.520;12.152;2022-08-21T01:33:51;15.70;99.90
24802;DHT22;12898;50.520;12.152;2022-08-21T01:36:17;15.70;99.90
24802;DHT22;12898;50.520;12.152;2022-08-21T01:38:43;15.70;99.90
24802;DHT22;12898;50.520;12.152;2022-08-21T01:41:09;15.70;99.90
24802;DHT22;12898;50.520;12.152;2022-08-21T01:43:35;15.60;99.90
24802;DHT22;12898;50.520;12.152;2022-08-21T01:46:03;15.60;99.90
24802;DHT22;12898;50.520;12.152;2022-08-21T01:48:29;15.60;99.90
24802;DHT22;12898;50.520;12.152;2022-08-21T01:50:55;15.60;99.90
24802;DHT22;12898;50.520;12.152;2022-08-21T01:53:21;15.60;99.90
24802;DHT22;12898;50.520;12.152;2022-08-21T01:55:47;15.60;99.90
24802;DHT22;12898;50.520;12.152;2022-08-21T01:58:13;15.60;99.90
24802;DHT22;12898;50.520;12.152;2022-08-21T02:00:38;15.50;99.90
24802;DHT22;12898;50.520;12.152;2022-08-21T02:03:04;15.40;99.90
24802;DHT22;12898;50.520;12.152;2022-08-21T02:05:30;15.40;99.90
24802;DHT22;12898;50.520;12.152;2022-08-21T02:07:56;15.40;99.90
24802;DHT22;12898;50.520;12.152;2022-08-21T02:10:26;15.40;99.90
24802;DHT22;12898;50.520;12.152;2022-08-21T02:12:53;15.30;99.90
24802;DHT22;12898;50.520;12.152;2022-08-21T02:15:21;15.40;99.90
24802;DHT22;12898;50.520;12.152;2022-08-21T02:17:51;15.40;99.90
24802;DHT22;12898;50.520;12.152;2022-08-21T02:20:26;15.40;99.90
24802;DHT22;12898;50.520;12.152;2022-08-21T02:23:03;15.40;99.90
24802;DHT22;12898;50.520;12.152;2022-08-21T02:25:29;15.50;99.90
24802;DHT22;12898;50.520;12.152;2022-08-21T02:27:56;15.60;99.90
24802;DHT22;12898;50.520;12.152;2022-08-21T02:30:32;15.70;99.90
24802;DHT22;12898;50.520;12.152;2022-08-21T02:33:00;15.70;99.90
24802;DHT22;12898;50.520;12.152;2022-08-21T02:35:26;15.80;99.90
24802;DHT22;12898;50.520;12.152;2022-08-21T02:37:55;15.80;99.90
24802;DHT22;12898;50.520;12.152;2022-08-21T02:40:26;15.90;99.90
24802;DHT22;12898;50.520;12.152;2022-08-21T02:42:54;15.90;99.90
24802;DHT22;12898;50.520;12.152;2022-08-21T02:45:20;16.00;99.90
24802;DHT22;12898;50.520;12.152;2022-08-21T02:47:51;16.00;99.90
24802;DHT22;12898;50.520;12.152;2022-08-21T02:50:25;16.00;99.90
24802;DHT22;12898;50.520;12.152;2022-08-21T02:52:53;16.10;99.90
24802;DHT22;12898;50.520;12.152;2022-08-21T02:55:20;16.10;99.90
24802;DHT22;12898;50.520;12.152;2022-08-21T02:57:48;16.10;99.90
24802;DHT22;12898;50.520;12.152;2022-08-21T03:00:14;16.20;99.90
24802;DHT22;12898;50.520;12.152;2022-08-21T03:02:41;16.20;99.90
24802;DHT22;12898;50.520;12.152;2022-08-21T03:05:08;16.20;99.90
24802;DHT22;12898;50.520;12.152;2022-08-21T03:07:36;16.20;99.90
24802;DHT22;12898;50.520;12.152;2022-08-21T03:10:04;16.30;99.90
24802;DHT22;12898;50.520;12.152;2022-08-21T03:12:30;16.30;99.90
24802;DHT22;12898;50.520;12.152;2022-08-21T03:14:56;16.30;99.90
24802;DHT22;12898;50.520;12.152;2022-08-21T03:17:23;16.30;99.90
24802;DHT22;12898;50.520;12.152;2022-08-21T03:19:50;16.30;99.90
24802;DHT22;12898;50.520;12.152;2022-08-21T03:22:15;16.30;99.90
24802;DHT22;12898;50.520;12.152;2022-08-21T03:24:41;16.40;99.90
24802;DHT22;12898;50.520;12.152;2022-08-21T03:27:07;16.40;99.90
24802;DHT22;12898;50.520;12.152;2022-08-21T03:29:32;16.40;99.90
24802;DHT22;12898;50.520;12.152;2022-08-21T03:31:58;16.40;99.90
24802;DHT22;12898;50.520;12.152;2022-08-21T03:34:23;16.40;99.90
24802;DHT22;12898;50.520;12.152;2022-08-21T03:36:49;16.40;99.90
24802;DHT22;12898;50.520;12.152;2022-08-21T03:39:18;16.40;99.90
24802;DHT22;12898;50.520;12.152;2022-08-21T03:41:44;16.40;99.90
24802;DHT22;12898;50.520;12.152;2022-08-21T03:44:10;16.40;99.90
24802;DHT22;12898;50.520;12.152;2022-08-21T03:46:37;16.40;99.90
24802;DHT22;12898;50.520;12.152;2022-08-21T03:49:02;16.50;99.90
24802;DHT22;12898;50.520;12.152;2022-08-21T03:51:28;16.50;99.90
24802;DHT22;12898;50.520;12.152;2022-08-21T03:53:54;16.50;99.90
24802;DHT22;12898;50.520;12.152;2022-08-21T03:56:19;16.50;99.90
24802;DHT22;12898;50.520;12.152;2022-08-21T03:58:45;16.50;99.90
24802;DHT22;12898;50.520;12.152;2022-08-21T04:01:11;16.50;99.90
24802;DHT22;12898;50.520;12.152;2022-08-21T04:03:38;16.50;99.90
24802;DHT22;12898;50.520;12.152;2022-08-21T04:06:04;16.50;99.90
24802;DHT22;12898;50.520;12.152;2022-08-21T04:08:30;16.50;99.90
24802;DHT22;12898;50.520;12.152;2022-08-21T04:10:57;16.40;99.90
24802;DHT22;12898;50.520;12.152;2022-08-21T04:13:24;16.40;99.90
24802;DHT22;12898;50.520;12.152;2022-08-21T04:15:51;16.40;99.90
24802;DHT22;12898;50.520;12.152;2022-08-21T04:18:17;16.40;99.90
24802;DHT22;12898;50.520;12.152;2022-08-21T04:20:46;16.40;99.90
24802;DHT22;12898;50.520;12.152;2022-08-21T04:23:13;16.50;99.90
24802;DHT22;12898;50.520;12.152;2022-08-21T04:25:39;16.40;99.90
24802;DHT22;12898;50.520;12.152;2022-08-21T04:28:04;16.50;99.90
24802;DHT22;12898;50.520;12.152;2022-08-21T04:30:31;16.50;99.90
24802;DHT22;12898;50.520;12.152;2022-08-21T04:32:57;16.50;99.90
24802;DHT22;12898;50.520;12.152;2022-08-21T04:35:25;16.50;99.90
24802;DHT22;12898;50.520;12.152;2022-08-21T04:37:52;16.60;99.90
24802;DHT22;12898;50.520;12.152;2022-08-21T04:40:19;16.60;99.90
24802;DHT22;12898;50.520;12.152;2022-08-21T04:42:57;16.50;99.90
24802;DHT22;12898;50.520;12.152;2022-08-21T04:45:32;16.60;99.90
24802;DHT22;12898;50.520;12.152;2022-08-21T04:48:00;16.60;99.90
24802;DHT22;12898;50.520;12.152;2022-08-21T04:50:30;16.50;99.90
24802;DHT22;12898;50.520;12.152;2022-08-21T04:53:00;16.50;99.90
24802;DHT22;12898;50.520;12.152;2022-08-21T04:55:26;16.60;99.90
24802;DHT22;12898;50.520;12.152;2022-08-21T04:57:54;16.50;99.90
24802;DHT22;12898;50.520;12.152;2022-08-21T05:00:22;16.50;99.90
24802;DHT22;12898;50.520;12.152;2022-08-21T05:02:51;16.40;99.90
24802;DHT22;12898;50.520;12.152;2022-08-21T05:05:21;16.40;99.90
24802;DHT22;12898;50.520;12.152;2022-08-21T05:07:48;16.40;99.90
24802;DHT22;12898;50.520;12.152;2022-08-21T05:10:14;16.40;99.90
24802;DHT22;12898;50.520;12.152;2022-08-21T05:12:41;16.40;99.90
24802;DHT22;12898;50.520;12.152;2022-08-21T05:15:09;16.40;99.90
24802;DHT22;12898;50.520;12.152;2022-08-21T05:17:37;16.50;99.90
24802;DHT22;12898;50.520;12.152;2022-08-21T05:20:03;16.50;99.90
24802;DHT22;12898;50.520;12.152;2022-08-21T05:22:29;16.60;99.90
24802;DHT22;12898;50.520;12.152;2022-08-21T05:24:57;16.60;99.90
24802;DHT22;12898;50.520;12.152;2022-08-21T05:27:23;16.70;99.90
24802;DHT22;12898;50.520;12.152;2022-08-21T05:29:48;16.80;99.90
24802;DHT22;12898;50.520;12.152;2022-08-21T05:32:14;16.80;99.90
24802;DHT22;12898;50.520;12.152;2022-08-21T05:34:40;16.80;99.90
24802;DHT22;12898;50.520;12.152;2022-08-21T05:37:06;16.90;99.90
24802;DHT22;12898;50.520;12.152;2022-08-21T05:39:31;16.90;99.90
24802;DHT22;12898;50.520;12.152;2022-08-21T05:41:58;16.90;99.90
24802;DHT22;12898;50.520;12.152;2022-08-21T05:44:23;17.00;99.90
24802;DHT22;12898;50.520;12.152;2022-08-21T05:46:49;17.00;99.90
24802;DHT22;12898;50.520;12.152;2022-08-21T05:49:15;17.00;99.90
24802;DHT22;12898;50.520;12.152;2022-08-21T05:51:41;17.10;99.90
24802;DHT22;12898;50.520;12.152;2022-08-21T05:54:08;17.10;99.90
24802;DHT22;12898;50.520;12.152;2022-08-21T05:56:33;17.10;99.90
24802;DHT22;12898;50.520;12.152;2022-08-21T05:58:59;17.20;99.90
24802;DHT22;12898;50.520;12.152;2022-08-21T06:01:25;17.20;99.90
24802;DHT22;12898;50.520;12.152;2022-08-21T06:03:51;17.20;99.90
24802;DHT22;12898;50.520;12.152;2022-08-21T06:06:17;17.20;99.90
24802;DHT22;12898;50.520;12.152;2022-08-21T06:08:43;17.20;99.90
24802;DHT22;12898;50.520;12.152;2022-08-21T06:11:09;17.30;99.90
24802;DHT22;12898;50.520;12.152;2022-08-21T06:13:36;17.30;99.90
24802;DHT22;12898;50.520;12.152;2022-08-21T06:16:05;17.30;99.90
24802;DHT22;12898;50.520;12.152;2022-08-21T06:18:32;17.30;99.90
24802;DHT22;12898;50.520;12.152;2022-08-21T06:20:58;17.30;99.90
24802;DHT22;12898;50.520;12.152;2022-08-21T06:23:24;17.40;99.90
24802;DHT22;12898;50.520;12.152;2022-08-21T06:25:49;17.40;99.90
24802;DHT22;12898;50.520;12.152;2022-08-21T06:28:15;17.50;99.90
24802;DHT22;12898;50.520;12.152;2022-08-21T06:30:41;17.50;99.90
24802;DHT22;12898;50.520;12.152;2022-08-21T06:33:07;17.50;99.90
24802;DHT22;12898;50.520;12.152;2022-08-21T06:35:34;17.50;99.90
24802;DHT22;12898;50.520;12.152;2022-08-21T06:38:00;17.50;99.90
24802;DHT22;12898;50.520;12.152;2022-08-21T06:40:27;17.50;99.90
24802;DHT22;12898;50.520;12.152;2022-08-21T06:42:53;17.60;99.90
24802;DHT22;12898;50.520;12.152;2022-08-21T06:45:19;17.60;99.90
24802;DHT22;12898;50.520;12.152;2022-08-21T06:47:45;17.70;99.90
24802;DHT22;12898;50.520;12.152;2022-08-21T06:50:11;17.70;99.90
24802;DHT22;12898;50.520;12.152;2022-08-21T06:52:38;17.80;99.90
24802;DHT22;12898;50.520;12.152;2022-08-21T06:55:05;17.80;99.90
24802;DHT22;12898;50.520;12.152;2022-08-21T06:57:33;17.80;99.90
24802;DHT22;12898;50.520;12.152;2022-08-21T06:59:58;17.90;99.90
24802;DHT22;12898;50.520;12.152;2022-08-21T07:02:24;18.00;99.90
24802;DHT22;12898;50.520;12.152;2022-08-21T07:04:50;18.10;99.90
24802;DHT22;12898;50.520;12.152;2022-08-21T07:07:16;18.10;99.90
24802;DHT22;12898;50.520;12.152;2022-08-21T07:09:42;18.20;99.90
24802;DHT22;12898;50.520;12.152;2022-08-21T07:12:08;18.30;99.90
24802;DHT22;12898;50.520;12.152;2022-08-21T07:14:35;18.40;99.90
24802;DHT22;12898;50.520;12.152;2022-08-21T07:17:01;18.40;99.90
24802;DHT22;12898;50.520;12.152;2022-08-21T07:19:27;18.50;99.90
24802;DHT22;12898;50.520;12.152;2022-08-21T07:21:58;18.70;99.90
24802;DHT22;12898;50.520;12.152;2022-08-21T07:24:25;18.80;99.90
24802;DHT22;12898;50.520;12.152;2022-08-21T07:26:51;19.00;99.90
24802;DHT22;12898;50.520;12.152;2022-08-21T07:29:17;19.10;99.90
24802;DHT22;12898;50.520;12.152;2022-08-21T07:31:44;19.20;99.90
24802;DHT22;12898;50.520;12.152;2022-08-21T07:34:09;19.40;99.90
24802;DHT22;12898;50.520;12.152;2022-08-21T07:36:35;19.40;99.90
24802;DHT22;12898;50.520;12.152;2022-08-21T07:39:01;19.50;99.90
24802;DHT22;12898;50.520;12.152;2022-08-21T07:41:28;19.60;99.90
24802;DHT22;12898;50.520;12.152;2022-08-21T07:43:55;19.70;99.90
24802;DHT22;12898;50.520;12.152;2022-08-21T07:46:22;19.80;99.90
24802;DHT22;12898;50.520;12.152;2022-08-21T07:48:48;19.90;99.90
24802;DHT22;12898;50.520;12.152;2022-08-21T07:51:16;20.00;99.90
24802;DHT22;12898;50.520;12.152;2022-08-21T07:53:49;20.10;99.90
24802;DHT22;12898;50.520;12.152;2022-08-21T07:56:16;20.10;99.90
24802;DHT22;12898;50.520;12.152;2022-08-21T07:58:41;20.30;99.90
24802;DHT22;12898;50.520;12.152;2022-08-21T08:01:07;20.40;99.90
24802;DHT22;12898;50.520;12.152;2022-08-21T08:03:33;20.40;99.90
24802;DHT22;12898;50.520;12.152;2022-08-21T08:05:59;20.50;99.90
24802;DHT22;12898;50.520;12.152;2022-08-21T08:08:25;20.70;99.90
24802;DHT22;12898;50.520;12.152;2022-08-21T08:10:52;20.70;99.90
24802;DHT22;12898;50.520;12.152;2022-08-21T08:13:19;20.90;99.90
24802;DHT22;12898;50.520;12.152;2022-08-21T08:15:45;21.10;99.90
24802;DHT22;12898;50.520;12.152;2022-08-21T08:18:10;21.20;99.90
24802;DHT22;12898;50.520;12.152;2022-08-21T08:20:36;21.30;99.90
24802;DHT22;12898;50.520;12.152;2022-08-21T08:23:02;21.40;99.90
24802;DHT22;12898;50.520;12.152;2022-08-21T08:25:28;21.60;99.90
24802;DHT22;12898;50.520;12.152;2022-08-21T08:27:54;21.70;99.90
24802;DHT22;12898;50.520;12.152;2022-08-21T08:30:20;21.80;99.90
24802;DHT22;12898;50.520;12.152;2022-08-21T08:32:47;22.00;99.90
24802;DHT22;12898;50.520;12.152;2022-08-21T08:35:13;22.20;99.90
24802;DHT22;12898;50.520;12.152;2022-08-21T08:37:42;22.30;99.90
24802;DHT22;12898;50.520;12.152;2022-08-21T08:40:14;22.50;99.90
24802;DHT22;12898;50.520;12.152;2022-08-21T08:42:43;22.80;99.90
24802;DHT22;12898;50.520;12.152;2022-08-21T08:45:16;23.30;99.90
24802;DHT22;12898;50.520;12.152;2022-08-21T08:47:57;23.60;99.90
24802;DHT22;12898;50.520;12.152;2022-08-21T08:50:40;23.70;99.90
24802;DHT22;12898;50.520;12.152;2022-08-21T08:53:17;23.80;99.90
24802;DHT22;12898;50.520;12.152;2022-08-21T08:55:48;24.00;99.90
24802;DHT22;12898;50.520;12.152;2022-08-21T08:58:24;24.00;99.90
24802;DHT22;12898;50.520;12.152;2022-08-21T09:00:54;24.10;99.90
24802;DHT22;12898;50.520;12.152;2022-08-21T09:03:22;24.30;99.90
24802;DHT22;12898;50.520;12.152;2022-08-21T09:12:12;24.10;99.90
24802;DHT22;12898;50.520;12.152;2022-08-21T09:23:24;24.00;99.90
24802;DHT22;12898;50.520;12.152;2022-08-21T09:26:35;24.30;99.90
24802;DHT22;12898;50.520;12.152;2022-08-21T09:28:56;24.50;99.90
24802;DHT22;12898;50.520;12.152;2022-08-21T09:31:25;24.70;99.90
24802;DHT22;12898;50.520;12.152;2022-08-21T09:34:04;25.00;99.90
24802;DHT22;12898;50.520;12.152;2022-08-21T09:39:12;25.80;99.90
24802;DHT22;12898;50.520;12.152;2022-08-21T09:41:56;26.10;99.00
24802;DHT22;12898;50.520;12.152;2022-08-21T09:44:26;26.20;97.10
24802;DHT22;12898;50.520;12.152;2022-08-21T09:46:53;26.40;95.30
24802;DHT22;12898;50.520;12.152;2022-08-21T09:49:30;26.40;91.90
24802;DHT22;12898;50.520;12.152;2022-08-21T09:51:57;26.50;86.70
24802;DHT22;12898;50.520;12.152;2022-08-21T09:54:31;26.40;88.90
24802;DHT22;12898;50.520;12.152;2022-08-21T09:57:06;26.20;90.30
24802;DHT22;12898;50.520;12.152;2022-08-21T10:02:48;26.00;86.00
24802;DHT22;12898;50.520;12.152;2022-08-21T10:05:24;25.90;89.50
24802;DHT22;12898;50.520;12.152;2022-08-21T10:07:52;26.10;89.20
24802;DHT22;12898;50.520;12.152;2022-08-21T10:10:30;26.20;86.60
24802;DHT22;12898;50.520;12.152;2022-08-21T10:13:11;26.10;89.70
24802;DHT22;12898;50.520;12.152;2022-08-21T10:21:00;25.50;84.70
24802;DHT22;12898;50.520;12.152;2022-08-21T10:23:40;25.30;92.90
24802;DHT22;12898;50.520;12.152;2022-08-21T10:26:31;25.30;91.40
24802;DHT22;12898;50.520;12.152;2022-08-21T10:29:19;25.10;86.40
24802;DHT22;12898;50.520;12.152;2022-08-21T10:32:13;24.90;89.20
24802;DHT22;12898;50.520;12.152;2022-08-21T10:35:10;24.50;89.50
24802;DHT22;12898;50.520;12.152;2022-08-21T10:44:31;25.20;96.60
24802;DHT22;12898;50.520;12.152;2022-08-21T10:47:47;26.10;91.30
24802;DHT22;12898;50.520;12.152;2022-08-21T10:50:29;26.50;88.10
24802;DHT22;12898;50.520;12.152;2022-08-21T10:53:32;26.20;83.10
24802;DHT22;12898;50.520;12.152;2022-08-21T10:56:25;25.60;82.00
24802;DHT22;12898;50.520;12.152;2022-08-21T11:01:47;24.80;90.60
24802;DHT22;12898;50.520;12.152;2022-08-21T11:04:34;24.40;83.40
24802;DHT22;12898;50.520;12.152;2022-08-21T11:07:21;24.80;88.80
24802;DHT22;12898;50.520;12.152;2022-08-21T11:09:51;25.00;85.00
24802;DHT22;12898;50.520;12.152;2022-08-21T11:12:27;24.80;90.40
24802;DHT22;12898;50.520;12.152;2022-08-21T11:18:32;24.30;93.00
24802;DHT22;12898;50.520;12.152;2022-08-21T11:26:43;25.70;89.60
24802;DHT22;12898;50.520;12.152;2022-08-21T11:29:26;26.60;88.80
24802;DHT22;12898;50.520;12.152;2022-08-21T11:43:24;25.00;86.90
24802;DHT22;12898;50.520;12.152;2022-08-21T11:46:00;24.90;81.70
24802;DHT22;12898;50.520;12.152;2022-08-21T11:52:19;24.80;86.30
24802;DHT22;12898;50.520;12.152;2022-08-21T11:54:56;25.50;80.50
24802;DHT22;12898;50.520;12.152;2022-08-21T11:57:52;26.30;85.30
24802;DHT22;12898;50.520;12.152;2022-08-21T12:00:33;27.30;77.20
24802;DHT22;12898;50.520;12.152;2022-08-21T12:03:13;27.30;73.50
24802;DHT22;12898;50.520;12.152;2022-08-21T12:06:04;27.20;71.50
24802;DHT22;12898;50.520;12.152;2022-08-21T12:08:36;27.20;72.90
24802;DHT22;12898;50.520;12.152;2022-08-21T12:13:52;27.90;71.30
24802;DHT22;12898;50.520;12.152;2022-08-21T12:16:36;28.40;65.80
24802;DHT22;12898;50.520;12.152;2022-08-21T12:19:13;28.70;63.30
24802;DHT22;12898;50.520;12.152;2022-08-21T12:21:58;28.80;65.00
24802;DHT22;12898;50.520;12.152;2022-08-21T12:30:05;28.50;63.40
24802;DHT22;12898;50.520;12.152;2022-08-21T12:32:46;28.60;57.00
24802;DHT22;12898;50.520;12.152;2022-08-21T12:35:24;28.60;58.60
24802;DHT22;12898;50.520;12.152;2022-08-21T12:38:04;28.30;61.60
24802;DHT22;12898;50.520;12.152;2022-08-21T12:40:45;28.00;64.20
24802;DHT22;12898;50.520;12.152;2022-08-21T12:43:21;27.60;68.00
24802;DHT22;12898;50.520;12.152;2022-08-21T12:45:53;27.50;67.20
24802;DHT22;12898;50.520;12.152;2022-08-21T12:51:17;27.40;66.00
24802;DHT22;12898;50.520;12.152;2022-08-21T12:53:50;27.40;64.80
24802;DHT22;12898;50.520;12.152;2022-08-21T12:56:31;27.30;65.90
24802;DHT22;12898;50.520;12.152;2022-08-21T12:59:05;27.10;67.00
24802;DHT22;12898;50.520;12.152;2022-08-21T13:01:38;27.00;66.80
24802;DHT22;12898;50.520;12.152;2022-08-21T13:04:12;26.80;67.80
24802;DHT22;12898;50.520;12.152;2022-08-21T13:06:45;26.90;69.80
24802;DHT22;12898;50.520;12.152;2022-08-21T13:09:15;27.20;69.00
24802;DHT22;12898;50.520;12.152;2022-08-21T13:11:43;27.50;67.70
24802;DHT22;12898;50.520;12.152;2022-08-21T13:14:21;27.90;67.30
24802;DHT22;12898;50.520;12.152;2022-08-21T13:16:58;28.30;61.70
24802;DHT22;12898;50.520;12.152;2022-08-21T13:19:25;28.70;58.20
24802;DHT22;12898;50.520;12.152;2022-08-21T13:21:52;29.10;57.50
24802;DHT22;12898;50.520;12.152;2022-08-21T13:24:35;29.20;52.30
24802;DHT22;12898;50.520;12.152;2022-08-21T13:27:01;28.50;58.60
24802;DHT22;12898;50.520;12.152;2022-08-21T13:29:30;28.20;59.50
24802;DHT22;12898;50.520;12.152;2022-08-21T13:32:01;28.30;62.30
24802;DHT22;12898;50.520;12.152;2022-08-21T13:34:33;28.20;63.30
24802;DHT22;12898;50.520;12.152;2022-08-21T13:37:04;28.00;63.40
24802;DHT22;12898;50.520;12.152;2022-08-21T13:39:31;28.40;65.80
24802;DHT22;12898;50.520;12.152;2022-08-21T13:42:01;28.80;60.90
24802;DHT22;12898;50.520;12.152;2022-08-21T13:44:43;29.50;58.40
24802;DHT22;12898;50.520;12.152;2022-08-21T13:47:13;30.10;59.30
24802;DHT22;12898;50.520;12.152;2022-08-21T13:49:45;30.40;58.30
24802;DHT22;12898;50.520;12.152;2022-08-21T13:52:21;30.20;56.80
24802;DHT22;12898;50.520;12.152;2022-08-21T13:55:12;30.30;57.40
24802;DHT22;12898;50.520;12.152;2022-08-21T13:57:38;30.00;57.40
24802;DHT22;12898;50.520;12.152;2022-08-21T14:00:20;29.50;56.60
24802;DHT22;12898;50.520;12.152;2022-08-21T14:02:54;29.20;59.90
24802;DHT22;12898;50.520;12.152;2022-08-21T14:05:29;29.50;57.60
24802;DHT22;12898;50.520;12.152;2022-08-21T14:08:07;29.80;57.30
24802;DHT22;12898;50.520;12.152;2022-08-21T14:10:41;29.70;56.30
24802;DHT22;12898;50.520;12.152;2022-08-21T14:13:27;29.40;57.80
24802;DHT22;12898;50.520;12.152;2022-08-21T14:16:18;29.30;57.50
24802;DHT22;12898;50.520;12.152;2022-08-21T14:21:33;28.90;58.80
24802;DHT22;12898;50.520;12.152;2022-08-21T14:24:06;29.00;57.50
24802;DHT22;12898;50.520;12.152;2022-08-21T14:26:36;29.00;55.10
24802;DHT22;12898;50.520;12.152;2022-08-21T14:29:09;28.80;58.60
24802;DHT22;12898;50.520;12.152;2022-08-21T14:31:35;28.20;56.30
24802;DHT22;12898;50.520;12.152;2022-08-21T14:34:01;27.60;59.10
24802;DHT22;12898;50.520;12.152;2022-08-21T14:36:27;27.50;59.50
24802;DHT22;12898;50.520;12.152;2022-08-21T14:38:53;27.40;60.60
24802;DHT22;12898;50.520;12.152;2022-08-21T14:41:23;27.60;62.20
24802;DHT22;12898;50.520;12.152;2022-08-21T14:43:51;28.00;58.50
24802;DHT22;12898;50.520;12.152;2022-08-21T14:46:21;28.40;61.50
24802;DHT22;12898;50.520;12.152;2022-08-21T14:48:49;28.50;62.10
24802;DHT22;12898;50.520;12.152;2022-08-21T14:51:15;28.70;58.90
24802;DHT22;12898;50.520;12.152;2022-08-21T14:53:41;28.80;58.00
24802;DHT22;12898;50.520;12.152;2022-08-21T14:56:07;29.00;56.90
24802;DHT22;12898;50.520;12.152;2022-08-21T14:58:39;29.00;57.80
24802;DHT22;12898;50.520;12.152;2022-08-21T15:01:07;29.20;57.70
24802;DHT22;12898;50.520;12.152;2022-08-21T15:03:35;29.10;57.00
24802;DHT22;12898;50.520;12.152;2022-08-21T15:06:01;29.00;57.60
24802;DHT22;12898;50.520;12.152;2022-08-21T15:08:27;29.10;58.70
24802;DHT22;12898;50.520;12.152;2022-08-21T15:10:53;29.00;57.70
24802;DHT22;12898;50.520;12.152;2022-08-21T15:13:20;29.00;57.40
24802;DHT22;12898;50.520;12.152;2022-08-21T15:15:49;29.10;57.40
24802;DHT22;12898;50.520;12.152;2022-08-21T15:18:21;29.10;57.50
24802;DHT22;12898;50.520;12.152;2022-08-21T15:20:49;28.90;55.10
24802;DHT22;12898;50.520;12.152;2022-08-21T15:23:15;28.90;58.20
24802;DHT22;12898;50.520;12.152;2022-08-21T15:25:46;28.50;59.30
24802;DHT22;12898;50.520;12.152;2022-08-21T15:28:14;28.10;57.60
24802;DHT22;12898;50.520;12.152;2022-08-21T15:30:42;27.60;60.40
24802;DHT22;12898;50.520;12.152;2022-08-21T15:33:09;27.60;59.80
24802;DHT22;12898;50.520;12.152;2022-08-21T15:35:35;27.60;61.10
24802;DHT22;12898;50.520;12.152;2022-08-21T15:38:02;27.60;59.70
24802;DHT22;12898;50.520;12.152;2022-08-21T15:40:29;27.70;60.20
24802;DHT22;12898;50.520;12.152;2022-08-21T15:43:00;27.90;57.80
24802;DHT22;12898;50.520;12.152;2022-08-21T15:45:27;27.80;58.00
24802;DHT22;12898;50.520;12.152;2022-08-21T15:47:54;27.50;58.60
24802;DHT22;12898;50.520;12.152;2022-08-21T15:50:21;26.90;60.80
24802;DHT22;12898;50.520;12.152;2022-08-21T15:52:47;26.40;63.40
24802;DHT22;12898;50.520;12.152;2022-08-21T15:55:14;26.30;65.10
24802;DHT22;12898;50.520;12.152;2022-08-21T15:57:46;26.30;63.80
24802;DHT22;12898;50.520;12.152;2022-08-21T16:00:20;26.20;62.70
24802;DHT22;12898;50.520;12.152;2022-08-21T16:02:52;26.20;64.20
24802;DHT22;12898;50.520;12.152;2022-08-21T16:05:20;26.20;62.90
24802;DHT22;12898;50.520;12.152;2022-08-21T16:07:47;26.30;63.80
24802;DHT22;12898;50.520;12.152;2022-08-21T16:10:15;26.40;64.60
24802;DHT22;12898;50.520;12.152;2022-08-21T16:12:45;26.80;65.30
24802;DHT22;12898;50.520;12.152;2022-08-21T16:15:14;27.30;58.50
24802;DHT22;12898;50.520;12.152;2022-08-21T16:17:42;27.70;59.00
24802;DHT22;12898;50.520;12.152;2022-08-21T16:20:14;28.10;58.20
24802;DHT22;12898;50.520;12.152;2022-08-21T16:22:42;28.20;58.40
24802;DHT22;12898;50.520;12.152;2022-08-21T16:25:08;28.40;57.00
24802;DHT22;12898;50.520;12.152;2022-08-21T16:27:34;28.40;55.60
24802;DHT22;12898;50.520;12.152;2022-08-21T16:30:01;28.30;55.40
24802;DHT22;12898;50.520;12.152;2022-08-21T16:32:29;28.30;56.20
24802;DHT22;12898;50.520;12.152;2022-08-21T16:34:54;28.20;57.60
24802;DHT22;12898;50.520;12.152;2022-08-21T16:37:20;27.90;56.70
24802;DHT22;12898;50.520;12.152;2022-08-21T16:39:47;27.70;57.00
24802;DHT22;12898;50.520;12.152;2022-08-21T16:42:16;27.40;58.50
24802;DHT22;12898;50.520;12.152;2022-08-21T16:44:45;27.10;57.90
24802;DHT22;12898;50.520;12.152;2022-08-21T16:47:11;26.90;58.40